Time;durP1;ratioP1;P1;durP2;ratioP2;P2;SDS_P1;SDS_P2;PMS_P1;PMS_P2;Temp;Humidity;BMP_temperature;BMP_pressure;BME280_temperature;BME280_humidity;BME280_pressure;Samples;Min_cycle;Max_cycle;Signal;HPM_P1;HPM_P2
2023/11/14 09:18:32;;;;;;;;;;;;;;;5.42;100.00;99320.04;1798685;77;20371;-72
2023/11/14 09:21:29;;;;;;;;;;;;;;;5.44;100.00;99313.06;1783270;80;20143;-75
2023/11/14 09:28:58;;;;;;;;;;;;;;;5.46;100.00;99305.24;1770484;79;20154;-72
2023/11/14 09:31:25;;;;;;;;;;;;;;;5.43;100.00;99291.19;1768659;80;20483;-68
2023/11/14 09:33:55;;;;;;;;;;;;;;;5.40;100.00;99290.03;1788906;79;20165;-71
2023/11/14 09:36:23;;;;;;;;;;;;;;;5.37;100.00;99287.14;1782557;79;20243;-74
2023/11/14 09:38:50;;;;;;;;;;;;;;;5.36;100.00;99277.27;1770408;80;20129;-71
2023/11/14 09:46:32;;;;;;;;;;;;;;;5.39;100.00;99266.42;1782515;80;20137;-72
2023/11/14 09:48:58;;;;;;;;;;;;;;;5.40;100.00;99255.19;1783247;80;20446;-70
2023/11/14 09:53:52;;;;;;;;;;;;;;;5.49;100.00;99239.27;1785731;80;20127;-70
2023/11/14 09:56:18;;;;;;;;;;;;;;;5.56;100.00;99233.73;1780578;80;20376;-75
2023/11/14 09:58:46;;;;;;;;;;;;;;;5.62;100.00;99228.70;1766972;79;20124;-71
2023/11/14 10:01:24;;;;;;;;;;;;;;;5.69;100.00;99215.41;1772118;80;20140;-68
2023/11/14 10:03:58;;;;;;;;;;;;;;;5.75;100.00;99205.23;1782038;80;20277;-67
2023/11/14 10:06:25;;;;;;;;;;;;;;;5.81;100.00;99204.10;1781791;80;20141;-71
2023/11/14 10:08:54;;;;;;;;;;;;;;;5.85;100.00;99205.17;1775249;80;20454;-71
2023/11/14 10:11:21;;;;;;;;;;;;;;;5.87;100.00;99196.05;1773640;80;20122;-74
2023/11/14 10:13:47;;;;;;;;;;;;;;;5.88;100.00;99201.59;1768773;80;20148;-72
2023/11/14 10:16:20;;;;;;;;;;;;;;;5.86;100.00;99190.05;1774498;80;20136;-71
2023/11/14 10:18:48;;;;;;;;;;;;;;;5.84;100.00;99180.70;1770391;80;20130;-72
2023/11/14 10:23:50;;;;;;;;;;;;;;;5.76;100.00;99169.91;1797042;79;20161;-72
2023/11/14 10:26:17;;;;;;;;;;;;;;;5.73;100.00;99167.48;1794612;79;20550;-68
2023/11/14 10:29:02;;;;;;;;;;;;;;;5.69;100.00;99162.47;1795713;79;20258;-71
2023/11/14 10:31:35;;;;;;;;;;;;;;;5.66;100.00;99159.20;1780993;79;20460;-68
2023/11/14 10:34:04;;;;;;;;;;;;;;;5.63;100.00;99151.14;1794127;79;20388;-71
2023/11/14 10:36:47;;;;;;;;;;;;;;;5.62;100.00;99148.64;1801039;79;20094;-75
2023/11/14 10:39:15;;;;;;;;;;;;;;;5.63;100.00;99143.39;1794037;79;20091;-69
2023/11/14 10:41:42;;;;;;;;;;;;;;;5.65;100.00;99141.58;1803406;79;20133;-71
2023/11/14 10:44:10;;;;;;;;;;;;;;;5.67;100.00;99137.17;1791473;79;20161;-71
2023/11/14 10:49:09;;;;;;;;;;;;;;;5.72;100.00;99134.36;1794468;79;20117;-69
2023/11/14 10:51:36;;;;;;;;;;;;;;;5.74;100.00;99132.98;1801827;79;20171;-69
2023/11/14 10:54:06;;;;;;;;;;;;;;;5.76;100.00;99123.41;1794963;79;20198;-72
2023/11/14 10:56:36;;;;;;;;;;;;;;;5.78;100.00;99115.13;1787479;79;20222;-73
2023/11/14 10:59:04;;;;;;;;;;;;;;;5.81;100.00;99116.27;1776708;81;20164;-73
2023/11/14 11:01:33;;;;;;;;;;;;;;;5.83;100.00;99104.11;1777633;78;20189;-72
2023/11/14 11:04:00;;;;;;;;;;;;;;;5.85;100.00;99111.33;1785284;78;20181;-67
2023/11/14 11:06:28;;;;;;;;;;;;;;;5.87;100.00;99096.58;1779746;79;20132;-72
2023/11/14 11:35:21;;;;;;;;;;;;;;;5.93;100.00;99070.46;1802585;79;20134;-73
2023/11/14 11:38:00;;;;;;;;;;;;;;;5.93;100.00;99061.42;1801426;78;20118;-74
2023/11/14 11:40:28;;;;;;;;;;;;;;;5.94;100.00;99060.05;1778307;79;20180;-73
2023/11/14 11:42:56;;;;;;;;;;;;;;;5.97;100.00;99055.17;1795054;79;20125;-74
2023/11/14 11:45:31;;;;;;;;;;;;;;;6.00;100.00;99044.19;1798627;79;20203;-66
2023/11/14 11:47:58;;;;;;;;;;;;;;;6.03;100.00;99041.91;1793068;79;20256;-73
2023/11/14 11:58:09;;;;;;;;;;;;;;;6.12;100.00;99011.70;1801109;79;20139;-74
2023/11/14 12:00:36;;;;;;;;;;;;;;;6.14;100.00;99005.16;1795950;79;20140;-72
2023/11/14 12:13:18;;;;;;;;;;;;;;;6.20;100.00;98979.80;1800239;78;20142;-77
2023/11/14 12:15:44;;;;;;;;;;;;;;;6.21;100.00;98968.55;1795096;79;20851;-67
2023/11/14 12:18:11;;;;;;;;;;;;;;;6.21;100.00;98969.02;1791724;79;20106;-72
2023/11/14 12:20:38;;;;;;;;;;;;;;;6.19;100.00;98966.97;1803558;78;20141;-73
2023/11/14 12:23:05;;;;;;;;;;;;;;;6.17;100.00;98972.68;1802326;79;20098;-69
2023/11/14 12:25:33;;;;;;;;;;;;;;;6.15;100.00;98962.88;1799143;79;20408;-71
2023/11/14 12:28:00;;;;;;;;;;;;;;;6.13;100.00;98960.38;1804504;79;20104;-72
2023/11/14 12:38:29;;;;;;;;;;;;;;;6.10;100.00;98938.58;1801495;79;20122;-73
2023/11/14 12:41:19;;;;;;;;;;;;;;;6.09;100.00;98939.50;1801974;79;20168;-71
2023/11/14 12:43:49;;;;;;;;;;;;;;;6.10;100.00;98936.45;1801924;79;20455;-71
2023/11/14 12:46:31;;;;;;;;;;;;;;;6.07;100.00;98928.87;1811793;79;20135;-72
2023/11/14 12:49:17;;;;;;;;;;;;;;;6.03;100.00;98929.50;1788241;79;20412;-72
2023/11/14 12:51:52;;;;;;;;;;;;;;;5.99;100.00;98920.28;1808030;78;20416;-71
2023/11/14 12:54:20;;;;;;;;;;;;;;;5.96;100.00;98908.81;1800936;79;20160;-74
2023/11/14 12:56:49;;;;;;;;;;;;;;;5.93;100.00;98907.69;1803161;79;20144;-73
2023/11/14 12:59:16;;;;;;;;;;;;;;;5.91;100.00;98899.19;1811621;77;20100;-74
2023/11/14 13:01:44;;;;;;;;;;;;;;;5.87;100.00;98900.23;1804320;79;20158;-73
2023/11/14 13:04:12;;;;;;;;;;;;;;;5.81;100.00;98885.08;1802256;79;20108;-74
2023/11/14 13:06:44;;;;;;;;;;;;;;;5.75;100.00;98877.66;1803923;79;20170;-73
2023/11/14 13:09:11;;;;;;;;;;;;;;;5.71;100.00;98880.86;1797043;79;20159;-70
2023/11/14 13:11:42;;;;;;;;;;;;;;;5.70;100.00;98870.16;1801588;79;20176;-70
2023/11/14 13:14:06;;;;;;;;;;;;;;;5.68;100.00;98866.37;1798983;77;20415;-71
2023/11/14 13:16:35;;;;;;;;;;;;;;;5.70;100.00;98863.70;1806521;77;20118;-73
